Terminal Aerodrome Forecast
Issued by NWS Denver/Boulder, CO

Home | Current Version | Previous Version | Text Only | Print | Product List | Glossary On
Versions: 1 2 3 4 5 6 7 8 9 10 11 12 13 14 15 16 17 18 19 20 21 22 23 24 25 26 27 28 29 30 31 32 33 34 35 36 37 38 39 40 41 42 43 44 45 46 47 48 49 50
714
FTUS45 KBOU 031739
TAFDEN
TAF
KDEN 031739Z 0318/0424 35014G21KT P6SM SCT070 SCT120
      TEMPO 0318/0320 BKN070
     FM032000 02013KT P6SM FEW140 SCT220
     FM040100 09008KT P6SM FEW220
     FM040300 16006KT P6SM FEW220
     FM040500 22009KT P6SM SKC
     FM041800 08008KT P6SM FEW080=

USA.gov is the U.S. government's official web portal to all federal, state and local government web resources and services.